createdAt,value
2023-01-25T13:34:42.980Z,101732.39
2023-01-25T13:38:11.135Z,101731.38
2023-01-25T13:41:03.058Z,101730.41
2023-01-25T13:44:31.009Z,101732.30
2023-01-25T13:47:58.892Z,101725.45
2023-01-25T13:51:26.859Z,101724.42
2023-01-25T13:54:54.662Z,101718.55
2023-01-25T13:58:22.226Z,101716.54
2023-01-25T14:01:50.211Z,101711.45
2023-01-25T14:05:18.218Z,101709.95
2023-01-25T14:08:46.048Z,101699.71
2023-01-25T14:12:13.909Z,101700.91
2023-01-25T14:15:22.459Z,101700.98
2023-01-25T14:18:50.311Z,101697.52
2023-01-25T14:22:18.155Z,101691.98
2023-01-25T14:25:45.842Z,101689.50
2023-01-25T14:29:19.010Z,101688.66
2023-01-25T14:32:41.789Z,101686.38
2023-01-25T14:36:24.018Z,101685.39
2023-01-25T14:39:37.952Z,101682.84
2023-01-25T14:43:05.747Z,101684.73
2023-01-25T14:46:33.548Z,101677.44
2023-01-25T14:50:01.342Z,101678.13
2023-01-25T14:53:29.137Z,101673.86
2023-01-25T14:56:57.063Z,101672.84
2023-01-25T15:00:25.041Z,101670.20
2023-01-25T15:03:13.396Z,101671.54
2023-01-25T15:06:41.063Z,101677.13
2023-01-25T15:10:09.129Z,101675.83
2023-01-25T15:13:36.713Z,101673.48
2023-01-25T15:17:04.877Z,101674.52
2023-01-25T15:20:32.672Z,101671.05
2023-01-25T15:24:00.863Z,101668.13
2023-01-25T15:27:28.937Z,101669.85
2023-01-25T15:30:56.882Z,101668.98
2023-01-25T15:34:25.289Z,101667.73
2023-01-25T15:37:53.177Z,101670.95
2023-01-25T15:41:21.114Z,101673.21
2023-01-25T15:44:48.836Z,101676.67
2023-01-25T15:48:16.729Z,101679.72
2023-01-25T15:51:26.772Z,101677.02
2023-01-25T15:55:01.320Z,101676.45
2023-01-25T15:58:22.585Z,101676.67
2023-01-25T16:01:50.388Z,101678.63
2023-01-25T16:05:18.272Z,101674.29
2023-01-25T16:08:46.208Z,101673.19
2023-01-25T16:12:15.837Z,101670.39
2023-01-25T16:15:41.876Z,101673.83
2023-01-25T16:19:09.797Z,101675.17
2023-01-25T16:22:37.518Z,101674.83
2023-01-25T16:26:05.043Z,101671.80
2023-01-25T16:29:32.827Z,101667.72
2023-01-25T16:33:00.630Z,101667.33
2023-01-25T16:36:28.388Z,101662.29
2023-01-25T16:39:36.432Z,101657.10
2023-01-25T16:43:04.158Z,101658.98
2023-01-25T16:46:31.903Z,101652.81
2023-01-25T16:50:00.003Z,101651.65
2023-01-25T16:53:27.790Z,101648.39
2023-01-25T16:56:55.793Z,101645.97
2023-01-25T17:00:23.513Z,101642.73
2023-01-25T17:03:51.464Z,101635.11
2023-01-25T17:07:19.285Z,101637.33
2023-01-25T17:10:47.408Z,101635.67
2023-01-25T17:14:15.391Z,101635.71
2023-01-25T17:17:43.137Z,101631.81
2023-01-25T17:21:07.349Z,101631.44
2023-01-25T17:24:35.647Z,101630.45
2023-01-25T17:27:05.770Z,101625.52
2023-01-25T17:30:33.503Z,101626.34
2023-01-25T17:34:01.242Z,101622.89
2023-01-25T17:37:29.117Z,101616.48
2023-01-25T17:40:56.988Z,101621.09
2023-01-25T17:44:24.820Z,101617.55
2023-01-25T17:47:53.020Z,101610.52
2023-01-25T17:51:21.214Z,101606.88
2023-01-25T17:54:48.685Z,101599.59
2023-01-25T17:58:16.405Z,101593.87
2023-01-25T18:01:44.197Z,101592.77
2023-01-25T18:05:12.040Z,101589.79
2023-01-25T18:08:40.191Z,101588.23
2023-01-25T18:12:07.919Z,101585.62
2023-01-25T18:15:35.696Z,101583.78
2023-01-25T18:19:03.532Z,101584.48
2023-01-25T18:22:31.459Z,101584.69
2023-01-25T18:25:59.096Z,101580.83
2023-01-25T18:29:26.888Z,101577.94
2023-01-25T18:32:54.814Z,101579.11
2023-01-25T18:36:22.921Z,101576.15
2023-01-25T18:39:50.635Z,101574.11
2023-01-25T18:43:18.544Z,101572.87
2023-01-25T18:46:46.422Z,101572.60
2023-01-25T18:50:14.208Z,101569.93
2023-01-25T18:53:41.893Z,101568.16
2023-01-25T18:57:10.132Z,101563.35
2023-01-25T19:00:38.277Z,101563.24
2023-01-25T19:04:05.900Z,101557.69
2023-01-25T19:07:33.661Z,101550.84
2023-01-25T19:10:42.582Z,101555.02
2023-01-25T19:14:10.540Z,101553.94
2023-01-25T19:17:38.167Z,101554.38
2023-01-25T19:21:05.697Z,101542.94
2023-01-25T19:24:33.646Z,101543.57
2023-01-25T19:28:01.535Z,101539.77
2023-01-25T19:31:29.661Z,101540.88
2023-01-25T19:34:57.393Z,101536.13
2023-01-25T19:38:06.086Z,101531.45
2023-01-25T19:41:34.292Z,101530.97
2023-01-25T19:45:02.006Z,101526.26
2023-01-25T19:48:30.146Z,101526.27
2023-01-25T19:51:57.881Z,101517.98
2023-01-25T19:55:25.747Z,101515.83
2023-01-25T19:58:21.956Z,101512.05
2023-01-25T20:01:49.776Z,101506.81
2023-01-25T20:05:13.195Z,101505.45
2023-01-25T20:08:41.221Z,101504.27
2023-01-25T20:12:09.104Z,101497.80
2023-01-25T20:15:36.706Z,101499.97
2023-01-25T20:19:04.602Z,101491.83
2023-01-25T20:22:32.405Z,101489.85
2023-01-25T20:25:41.039Z,101487.92
2023-01-25T20:29:09.021Z,101486.27
2023-01-25T20:32:36.797Z,101486.79
2023-01-25T20:36:04.524Z,101481.05
2023-01-25T20:39:32.367Z,101478.08
2023-01-25T20:43:00.228Z,101480.88
2023-01-25T20:46:28.264Z,101476.86
2023-01-25T20:49:37.096Z,101475.36
2023-01-25T20:52:44.830Z,101474.20
2023-01-25T20:56:12.733Z,101467.13
2023-01-25T20:59:40.834Z,101457.29
2023-01-25T21:03:08.427Z,101461.18
2023-01-25T21:06:16.736Z,101461.87
2023-01-25T21:09:44.535Z,101460.54
2023-01-25T21:13:12.485Z,101455.44
2023-01-25T21:16:40.399Z,101458.71
2023-01-25T21:19:48.591Z,101453.31
2023-01-25T21:23:16.296Z,101454.15
2023-01-25T21:26:44.038Z,101454.86
2023-01-25T21:30:11.866Z,101455.21
2023-01-25T21:33:39.949Z,101448.33
2023-01-25T21:36:28.820Z,101452.57
2023-01-25T21:39:56.699Z,101460.02
2023-01-25T21:43:24.911Z,101462.00
2023-01-25T21:46:04.026Z,101459.20
2023-01-25T21:49:31.710Z,101453.21
2023-01-25T21:52:59.548Z,101451.62
2023-01-25T21:56:27.291Z,101451.91
2023-01-25T21:59:55.024Z,101450.50
2023-01-25T22:03:22.863Z,101449.53
2023-01-25T22:06:50.876Z,101444.23
2023-01-25T22:10:18.688Z,101444.19
2023-01-25T22:13:46.585Z,101448.83
2023-01-25T22:17:14.317Z,101444.72
2023-01-25T22:20:42.264Z,101440.55
2023-01-25T22:24:10.381Z,101434.00
2023-01-25T22:27:18.110Z,101428.50
2023-01-25T22:30:45.905Z,101426.42
2023-01-25T22:34:13.658Z,101420.63
2023-01-25T22:37:41.541Z,101412.25
2023-01-25T22:41:09.245Z,101407.52
2023-01-25T22:44:37.273Z,101404.70
2023-01-25T22:48:06.704Z,101404.48
2023-01-25T22:51:34.473Z,101397.98
2023-01-25T22:55:02.353Z,101391.30
2023-01-25T22:58:11.292Z,101386.05
2023-01-25T23:01:39.058Z,101375.86
2023-01-25T23:04:47.809Z,101370.10
2023-01-25T23:08:15.476Z,101367.40
2023-01-25T23:11:43.298Z,101364.52
2023-01-25T23:15:11.116Z,101356.78
2023-01-25T23:18:39.256Z,101353.16
2023-01-25T23:22:07.246Z,101347.63
2023-01-25T23:25:34.990Z,101344.09
2023-01-25T23:29:02.614Z,101342.83
2023-01-25T23:32:30.312Z,101338.08
2023-01-25T23:35:58.044Z,101341.88
2023-01-25T23:39:25.901Z,101339.84
2023-01-25T23:42:53.738Z,101334.11
2023-01-25T23:46:21.441Z,101327.23
2023-01-25T23:49:49.178Z,101322.05
2023-01-25T23:53:16.957Z,101317.47
2023-01-25T23:56:44.883Z,101316.90
